sensor_id;sensor_type;location;lat;lon;timestamp;temperature;humidity
36774;DHT22;22730;51.980;5.934;2023-08-20T00:00:28;25.80;63.70
36774;DHT22;22730;51.980;5.934;2023-08-20T00:03:14;25.70;63.70
36774;DHT22;22730;51.980;5.934;2023-08-20T00:05:40;25.90;63.30
36774;DHT22;22730;51.980;5.934;2023-08-20T00:08:09;25.90;63.70
36774;DHT22;22730;51.980;5.934;2023-08-20T00:10:34;26.10;62.80
36774;DHT22;22730;51.980;5.934;2023-08-20T00:13:00;26.20;62.50
36774;DHT22;22730;51.980;5.934;2023-08-20T00:15:26;26.30;62.40
36774;DHT22;22730;51.980;5.934;2023-08-20T00:17:54;26.40;62.40
36774;DHT22;22730;51.980;5.934;2023-08-20T00:20:21;26.40;62.50
36774;DHT22;22730;51.980;5.934;2023-08-20T00:22:47;26.40;62.40
36774;DHT22;22730;51.980;5.934;2023-08-20T00:25:14;26.50;62.40
36774;DHT22;22730;51.980;5.934;2023-08-20T00:27:41;26.50;62.40
36774;DHT22;22730;51.980;5.934;2023-08-20T00:30:08;26.60;62.40
36774;DHT22;22730;51.980;5.934;2023-08-20T00:32:35;26.60;62.40
36774;DHT22;22730;51.980;5.934;2023-08-20T00:35:01;26.60;62.40
36774;DHT22;22730;51.980;5.934;2023-08-20T00:37:29;26.60;62.50
36774;DHT22;22730;51.980;5.934;2023-08-20T00:39:54;26.60;62.40
36774;DHT22;22730;51.980;5.934;2023-08-20T00:42:20;26.60;62.40
36774;DHT22;22730;51.980;5.934;2023-08-20T00:44:46;26.70;62.40
36774;DHT22;22730;51.980;5.934;2023-08-20T00:47:16;26.60;62.50
36774;DHT22;22730;51.980;5.934;2023-08-20T00:49:44;26.60;62.40
36774;DHT22;22730;51.980;5.934;2023-08-20T00:52:10;26.60;62.50
36774;DHT22;22730;51.980;5.934;2023-08-20T00:54:37;26.60;62.40
36774;DHT22;22730;51.980;5.934;2023-08-20T00:57:06;26.70;62.30
36774;DHT22;22730;51.980;5.934;2023-08-20T00:59:32;26.70;62.30
36774;DHT22;22730;51.980;5.934;2023-08-20T01:02:00;26.70;62.30
36774;DHT22;22730;51.980;5.934;2023-08-20T01:04:26;26.70;62.30
36774;DHT22;22730;51.980;5.934;2023-08-20T01:12:34;26.70;62.30
36774;DHT22;22730;51.980;5.934;2023-08-20T01:15:00;26.70;62.40
36774;DHT22;22730;51.980;5.934;2023-08-20T01:17:26;26.60;62.20
36774;DHT22;22730;51.980;5.934;2023-08-20T01:19:52;26.70;62.30
36774;DHT22;22730;51.980;5.934;2023-08-20T01:25:50;26.70;62.10
36774;DHT22;22730;51.980;5.934;2023-08-20T01:28:28;26.70;62.10
36774;DHT22;22730;51.980;5.934;2023-08-20T01:30:55;26.70;62.00
36774;DHT22;22730;51.980;5.934;2023-08-20T01:33:22;26.70;62.00
36774;DHT22;22730;51.980;5.934;2023-08-20T01:35:55;26.70;62.00
36774;DHT22;22730;51.980;5.934;2023-08-20T01:38:21;26.70;62.00
36774;DHT22;22730;51.980;5.934;2023-08-20T01:40:48;26.70;62.00
36774;DHT22;22730;51.980;5.934;2023-08-20T01:43:15;26.70;62.00
36774;DHT22;22730;51.980;5.934;2023-08-20T01:45:41;26.70;62.00
36774;DHT22;22730;51.980;5.934;2023-08-20T01:48:09;26.70;62.00
36774;DHT22;22730;51.980;5.934;2023-08-20T01:50:36;26.60;61.90
36774;DHT22;22730;51.980;5.934;2023-08-20T01:53:02;26.70;62.00
36774;DHT22;22730;51.980;5.934;2023-08-20T01:55:29;26.70;61.90
36774;DHT22;22730;51.980;5.934;2023-08-20T01:57:55;26.70;61.90
36774;DHT22;22730;51.980;5.934;2023-08-20T02:00:20;26.70;61.90
36774;DHT22;22730;51.980;5.934;2023-08-20T02:02:46;26.70;61.90
36774;DHT22;22730;51.980;5.934;2023-08-20T02:05:12;26.70;61.90
36774;DHT22;22730;51.980;5.934;2023-08-20T02:07:38;26.70;61.80
36774;DHT22;22730;51.980;5.934;2023-08-20T02:10:04;26.70;61.80
36774;DHT22;22730;51.980;5.934;2023-08-20T02:12:30;26.70;61.80
36774;DHT22;22730;51.980;5.934;2023-08-20T02:14:56;26.70;61.80
36774;DHT22;22730;51.980;5.934;2023-08-20T02:17:22;26.70;61.70
36774;DHT22;22730;51.980;5.934;2023-08-20T02:19:56;26.70;61.70
36774;DHT22;22730;51.980;5.934;2023-08-20T02:22:22;26.70;61.70
36774;DHT22;22730;51.980;5.934;2023-08-20T02:24:48;26.70;61.70
36774;DHT22;22730;51.980;5.934;2023-08-20T02:27:15;26.70;61.60
36774;DHT22;22730;51.980;5.934;2023-08-20T02:29:43;26.80;61.50
36774;DHT22;22730;51.980;5.934;2023-08-20T02:32:14;26.70;61.50
36774;DHT22;22730;51.980;5.934;2023-08-20T02:34:43;26.50;61.70
36774;DHT22;22730;51.980;5.934;2023-08-20T02:37:09;26.50;61.80
36774;DHT22;22730;51.980;5.934;2023-08-20T02:39:35;26.50;61.70
36774;DHT22;22730;51.980;5.934;2023-08-20T02:42:01;26.50;61.70
36774;DHT22;22730;51.980;5.934;2023-08-20T02:44:29;26.40;62.10
36774;DHT22;22730;51.980;5.934;2023-08-20T02:46:57;26.30;62.20
36774;DHT22;22730;51.980;5.934;2023-08-20T02:49:23;26.30;62.10
36774;DHT22;22730;51.980;5.934;2023-08-20T02:51:49;26.30;62.00
36774;DHT22;22730;51.980;5.934;2023-08-20T02:54:23;26.30;61.90
36774;DHT22;22730;51.980;5.934;2023-08-20T02:56:51;26.30;61.80
36774;DHT22;22730;51.980;5.934;2023-08-20T02:59:17;26.20;62.20
36774;DHT22;22730;51.980;5.934;2023-08-20T03:01:43;26.20;62.00
36774;DHT22;22730;51.980;5.934;2023-08-20T03:04:11;26.00;62.40
36774;DHT22;22730;51.980;5.934;2023-08-20T03:06:37;26.00;62.40
36774;DHT22;22730;51.980;5.934;2023-08-20T03:09:02;26.10;62.20
36774;DHT22;22730;51.980;5.934;2023-08-20T03:11:29;26.10;62.20
36774;DHT22;22730;51.980;5.934;2023-08-20T03:13:55;26.10;62.10
36774;DHT22;22730;51.980;5.934;2023-08-20T03:16:21;26.10;62.00
36774;DHT22;22730;51.980;5.934;2023-08-20T03:18:49;26.20;61.90
36774;DHT22;22730;51.980;5.934;2023-08-20T03:21:20;26.30;61.80
36774;DHT22;22730;51.980;5.934;2023-08-20T03:23:45;26.30;61.70
36774;DHT22;22730;51.980;5.934;2023-08-20T03:26:13;26.30;61.70
36774;DHT22;22730;51.980;5.934;2023-08-20T03:28:39;26.40;61.70
36774;DHT22;22730;51.980;5.934;2023-08-20T03:31:05;26.40;62.20
36774;DHT22;22730;51.980;5.934;2023-08-20T03:33:35;26.40;61.60
36774;DHT22;22730;51.980;5.934;2023-08-20T03:36:01;26.40;61.70
36774;DHT22;22730;51.980;5.934;2023-08-20T03:38:27;26.40;61.70
36774;DHT22;22730;51.980;5.934;2023-08-20T03:40:55;26.40;61.60
36774;DHT22;22730;51.980;5.934;2023-08-20T03:43:21;26.40;61.70
36774;DHT22;22730;51.980;5.934;2023-08-20T03:45:50;26.30;61.80
36774;DHT22;22730;51.980;5.934;2023-08-20T03:48:17;26.30;61.80
36774;DHT22;22730;51.980;5.934;2023-08-20T03:50:43;26.30;61.60
36774;DHT22;22730;51.980;5.934;2023-08-20T03:53:09;26.40;61.60
36774;DHT22;22730;51.980;5.934;2023-08-20T03:55:35;26.40;61.50
36774;DHT22;22730;51.980;5.934;2023-08-20T03:58:00;26.40;61.50
36774;DHT22;22730;51.980;5.934;2023-08-20T04:00:26;26.30;61.50
36774;DHT22;22730;51.980;5.934;2023-08-20T04:02:52;26.30;61.50
36774;DHT22;22730;51.980;5.934;2023-08-20T04:05:18;26.40;61.60
36774;DHT22;22730;51.980;5.934;2023-08-20T04:07:44;26.40;61.60
36774;DHT22;22730;51.980;5.934;2023-08-20T04:10:11;26.40;61.60
36774;DHT22;22730;51.980;5.934;2023-08-20T04:12:37;26.30;61.50
36774;DHT22;22730;51.980;5.934;2023-08-20T04:15:03;26.40;61.50
36774;DHT22;22730;51.980;5.934;2023-08-20T04:17:29;26.40;61.40
36774;DHT22;22730;51.980;5.934;2023-08-20T04:19:55;26.40;61.30
36774;DHT22;22730;51.980;5.934;2023-08-20T04:22:21;26.40;61.30
36774;DHT22;22730;51.980;5.934;2023-08-20T04:24:47;26.40;61.20
36774;DHT22;22730;51.980;5.934;2023-08-20T04:27:13;26.40;61.10
36774;DHT22;22730;51.980;5.934;2023-08-20T04:29:41;26.40;61.10
36774;DHT22;22730;51.980;5.934;2023-08-20T04:32:07;26.40;61.10
36774;DHT22;22730;51.980;5.934;2023-08-20T04:34:46;26.40;61.10
36774;DHT22;22730;51.980;5.934;2023-08-20T04:37:16;26.40;61.10
36774;DHT22;22730;51.980;5.934;2023-08-20T04:39:41;26.40;61.10
36774;DHT22;22730;51.980;5.934;2023-08-20T04:42:07;26.40;61.10
36774;DHT22;22730;51.980;5.934;2023-08-20T04:44:33;26.30;61.00
36774;DHT22;22730;51.980;5.934;2023-08-20T04:47:00;26.40;61.10
36774;DHT22;22730;51.980;5.934;2023-08-20T04:49:25;26.40;61.00
36774;DHT22;22730;51.980;5.934;2023-08-20T04:51:54;26.40;60.90
36774;DHT22;22730;51.980;5.934;2023-08-20T04:54:20;26.40;60.70
36774;DHT22;22730;51.980;5.934;2023-08-20T04:56:46;26.50;60.70
36774;DHT22;22730;51.980;5.934;2023-08-20T04:59:12;26.40;60.60
36774;DHT22;22730;51.980;5.934;2023-08-20T05:01:50;26.40;60.70
36774;DHT22;22730;51.980;5.934;2023-08-20T05:04:18;26.40;60.80
36774;DHT22;22730;51.980;5.934;2023-08-20T05:06:44;26.40;60.80
36774;DHT22;22730;51.980;5.934;2023-08-20T05:09:10;26.40;60.80
36774;DHT22;22730;51.980;5.934;2023-08-20T05:11:36;26.40;60.80
36774;DHT22;22730;51.980;5.934;2023-08-20T05:14:02;26.40;60.70
36774;DHT22;22730;51.980;5.934;2023-08-20T05:16:28;26.40;60.60
36774;DHT22;22730;51.980;5.934;2023-08-20T05:18:53;26.40;60.40
36774;DHT22;22730;51.980;5.934;2023-08-20T05:21:21;26.50;60.30
36774;DHT22;22730;51.980;5.934;2023-08-20T05:23:50;26.70;60.10
36774;DHT22;22730;51.980;5.934;2023-08-20T05:26:16;26.80;59.90
36774;DHT22;22730;51.980;5.934;2023-08-20T05:28:42;26.90;59.60
36774;DHT22;22730;51.980;5.934;2023-08-20T05:31:09;26.90;59.40
36774;DHT22;22730;51.980;5.934;2023-08-20T05:33:36;27.00;59.40
36774;DHT22;22730;51.980;5.934;2023-08-20T05:36:03;27.00;59.30
36774;DHT22;22730;51.980;5.934;2023-08-20T05:38:31;27.10;59.20
36774;DHT22;22730;51.980;5.934;2023-08-20T05:41:00;27.20;59.10
36774;DHT22;22730;51.980;5.934;2023-08-20T05:43:30;27.30;59.00
36774;DHT22;22730;51.980;5.934;2023-08-20T05:46:00;27.40;58.90
36774;DHT22;22730;51.980;5.934;2023-08-20T05:48:26;27.50;58.80
36774;DHT22;22730;51.980;5.934;2023-08-20T05:50:52;27.50;58.80
36774;DHT22;22730;51.980;5.934;2023-08-20T05:53:18;27.50;58.70
36774;DHT22;22730;51.980;5.934;2023-08-20T05:55:46;27.50;58.80
36774;DHT22;22730;51.980;5.934;2023-08-20T05:58:12;27.50;58.80
36774;DHT22;22730;51.980;5.934;2023-08-20T06:00:38;27.50;58.90
36774;DHT22;22730;51.980;5.934;2023-08-20T06:03:04;27.50;58.90
36774;DHT22;22730;51.980;5.934;2023-08-20T06:05:30;27.50;59.50
36774;DHT22;22730;51.980;5.934;2023-08-20T06:07:56;27.60;59.00
36774;DHT22;22730;51.980;5.934;2023-08-20T06:10:22;27.60;58.90
36774;DHT22;22730;51.980;5.934;2023-08-20T06:12:50;27.70;58.90
36774;DHT22;22730;51.980;5.934;2023-08-20T06:15:16;27.70;58.80
36774;DHT22;22730;51.980;5.934;2023-08-20T06:17:42;27.80;58.80
36774;DHT22;22730;51.980;5.934;2023-08-20T06:20:08;27.80;58.70
36774;DHT22;22730;51.980;5.934;2023-08-20T06:22:34;27.90;58.60
36774;DHT22;22730;51.980;5.934;2023-08-20T06:25:00;28.00;58.40
36774;DHT22;22730;51.980;5.934;2023-08-20T06:27:26;28.00;58.50
36774;DHT22;22730;51.980;5.934;2023-08-20T06:29:52;28.10;58.50
36774;DHT22;22730;51.980;5.934;2023-08-20T06:32:18;28.10;58.30
36774;DHT22;22730;51.980;5.934;2023-08-20T06:34:44;28.20;58.20
36774;DHT22;22730;51.980;5.934;2023-08-20T06:37:09;28.30;58.10
36774;DHT22;22730;51.980;5.934;2023-08-20T06:39:38;28.30;58.10
36774;DHT22;22730;51.980;5.934;2023-08-20T08:40:29;29.20;52.40
36774;DHT22;22730;51.980;5.934;2023-08-20T08:42:55;29.20;52.70
36774;DHT22;22730;51.980;5.934;2023-08-20T08:45:22;29.30;52.50
36774;DHT22;22730;51.980;5.934;2023-08-20T08:47:49;29.40;52.50
36774;DHT22;22730;51.980;5.934;2023-08-20T08:50:15;29.40;52.00
36774;DHT22;22730;51.980;5.934;2023-08-20T08:52:41;29.40;52.20
36774;DHT22;22730;51.980;5.934;2023-08-20T08:55:07;29.40;51.80
36774;DHT22;22730;51.980;5.934;2023-08-20T08:57:36;29.40;52.00
36774;DHT22;22730;51.980;5.934;2023-08-20T09:00:02;29.50;51.80
36774;DHT22;22730;51.980;5.934;2023-08-20T09:02:28;29.50;51.30
36774;DHT22;22730;51.980;5.934;2023-08-20T09:04:54;29.40;51.10
36774;DHT22;22730;51.980;5.934;2023-08-20T09:07:23;29.20;51.20
36774;DHT22;22730;51.980;5.934;2023-08-20T09:09:49;29.30;51.30
36774;DHT22;22730;51.980;5.934;2023-08-20T09:12:18;29.30;51.30
36774;DHT22;22730;51.980;5.934;2023-08-20T09:14:49;29.40;51.30
36774;DHT22;22730;51.980;5.934;2023-08-20T09:17:15;29.40;51.20
36774;DHT22;22730;51.980;5.934;2023-08-20T09:19:43;29.30;51.10
36774;DHT22;22730;51.980;5.934;2023-08-20T09:22:12;29.30;50.40
36774;DHT22;22730;51.980;5.934;2023-08-20T09:24:46;29.20;50.50
36774;DHT22;22730;51.980;5.934;2023-08-20T09:27:13;29.30;50.50
36774;DHT22;22730;51.980;5.934;2023-08-20T09:29:49;29.40;49.90
36774;DHT22;22730;51.980;5.934;2023-08-20T09:32:16;29.50;49.40
36774;DHT22;22730;51.980;5.934;2023-08-20T09:34:43;29.50;49.80
36774;DHT22;22730;51.980;5.934;2023-08-20T09:37:10;29.50;49.40
36774;DHT22;22730;51.980;5.934;2023-08-20T09:39:36;29.60;49.40
36774;DHT22;22730;51.980;5.934;2023-08-20T09:42:02;29.70;49.50
36774;DHT22;22730;51.980;5.934;2023-08-20T09:44:33;29.70;49.20
36774;DHT22;22730;51.980;5.934;2023-08-20T09:47:09;29.70;49.00
36774;DHT22;22730;51.980;5.934;2023-08-20T09:49:43;29.70;49.20
36774;DHT22;22730;51.980;5.934;2023-08-20T09:52:10;29.70;49.10
36774;DHT22;22730;51.980;5.934;2023-08-20T09:55:03;29.70;48.90
36774;DHT22;22730;51.980;5.934;2023-08-20T09:57:37;29.80;48.70
36774;DHT22;22730;51.980;5.934;2023-08-20T10:00:04;29.70;49.00
36774;DHT22;22730;51.980;5.934;2023-08-20T10:02:40;29.60;48.90
36774;DHT22;22730;51.980;5.934;2023-08-20T10:05:07;29.70;48.90
36774;DHT22;22730;51.980;5.934;2023-08-20T10:07:34;29.70;48.40
36774;DHT22;22730;51.980;5.934;2023-08-20T10:10:08;29.80;48.40
36774;DHT22;22730;51.980;5.934;2023-08-20T10:12:36;29.80;48.30
36774;DHT22;22730;51.980;5.934;2023-08-20T10:15:07;29.80;48.30
36774;DHT22;22730;51.980;5.934;2023-08-20T10:17:34;29.90;48.20
36774;DHT22;22730;51.980;5.934;2023-08-20T10:20:03;30.00;47.70
36774;DHT22;22730;51.980;5.934;2023-08-20T10:22:43;30.20;47.70
36774;DHT22;22730;51.980;5.934;2023-08-20T10:25:22;30.20;47.80
36774;DHT22;22730;51.980;5.934;2023-08-20T10:27:49;30.10;48.00
36774;DHT22;22730;51.980;5.934;2023-08-20T10:30:19;29.80;48.20
36774;DHT22;22730;51.980;5.934;2023-08-20T10:32:55;29.50;48.50
36774;DHT22;22730;51.980;5.934;2023-08-20T10:38:14;29.50;48.70
36774;DHT22;22730;51.980;5.934;2023-08-20T10:40:56;29.70;48.10
36774;DHT22;22730;51.980;5.934;2023-08-20T10:46:18;30.00;47.50
36774;DHT22;22730;51.980;5.934;2023-08-20T10:48:48;30.00;47.50
36774;DHT22;22730;51.980;5.934;2023-08-20T10:51:19;30.00;47.70
36774;DHT22;22730;51.980;5.934;2023-08-20T10:54:03;29.80;48.00
36774;DHT22;22730;51.980;5.934;2023-08-20T10:56:48;29.70;47.80
36774;DHT22;22730;51.980;5.934;2023-08-20T10:59:21;29.90;47.20
36774;DHT22;22730;51.980;5.934;2023-08-20T11:01:49;30.00;46.90
36774;DHT22;22730;51.980;5.934;2023-08-20T11:04:18;30.00;46.90
36774;DHT22;22730;51.980;5.934;2023-08-20T11:06:45;30.00;46.50
36774;DHT22;22730;51.980;5.934;2023-08-20T11:09:11;29.80;46.90
36774;DHT22;22730;51.980;5.934;2023-08-20T11:11:41;29.70;47.30
36774;DHT22;22730;51.980;5.934;2023-08-20T11:14:12;29.70;47.30
36774;DHT22;22730;51.980;5.934;2023-08-20T11:16:42;29.70;47.20
36774;DHT22;22730;51.980;5.934;2023-08-20T11:19:12;29.90;46.70
36774;DHT22;22730;51.980;5.934;2023-08-20T11:21:43;30.00;46.50
36774;DHT22;22730;51.980;5.934;2023-08-20T11:24:09;30.00;46.30
36774;DHT22;22730;51.980;5.934;2023-08-20T11:26:38;30.00;46.50
36774;DHT22;22730;51.980;5.934;2023-08-20T11:29:10;30.00;46.40
36774;DHT22;22730;51.980;5.934;2023-08-20T11:31:38;29.90;46.80
36774;DHT22;22730;51.980;5.934;2023-08-20T11:34:05;29.80;45.50
36774;DHT22;22730;51.980;5.934;2023-08-20T11:36:31;29.90;46.10
36774;DHT22;22730;51.980;5.934;2023-08-20T11:38:57;29.80;46.40
36774;DHT22;22730;51.980;5.934;2023-08-20T11:41:24;29.70;46.70
36774;DHT22;22730;51.980;5.934;2023-08-20T11:43:52;29.70;46.00
36774;DHT22;22730;51.980;5.934;2023-08-20T11:46:19;29.80;45.90
36774;DHT22;22730;51.980;5.934;2023-08-20T11:49:06;29.90;45.80
36774;DHT22;22730;51.980;5.934;2023-08-20T11:54:10;30.00;45.20
36774;DHT22;22730;51.980;5.934;2023-08-20T11:56:36;30.10;45.60
36774;DHT22;22730;51.980;5.934;2023-08-20T11:59:04;30.00;45.30
36774;DHT22;22730;51.980;5.934;2023-08-20T12:01:33;30.10;45.30
36774;DHT22;22730;51.980;5.934;2023-08-20T12:04:06;30.10;45.20
36774;DHT22;22730;51.980;5.934;2023-08-20T12:06:34;30.10;45.10
36774;DHT22;22730;51.980;5.934;2023-08-20T12:09:01;30.10;45.40
36774;DHT22;22730;51.980;5.934;2023-08-20T12:11:30;30.10;45.50
36774;DHT22;22730;51.980;5.934;2023-08-20T12:13:56;30.10;45.80
36774;DHT22;22730;51.980;5.934;2023-08-20T12:16:23;29.90;46.10
36774;DHT22;22730;51.980;5.934;2023-08-20T12:18:51;29.80;46.20
36774;DHT22;22730;51.980;5.934;2023-08-20T12:21:18;29.70;46.50
36774;DHT22;22730;51.980;5.934;2023-08-20T12:23:44;29.80;45.50
36774;DHT22;22730;51.980;5.934;2023-08-20T12:26:10;29.80;46.10
36774;DHT22;22730;51.980;5.934;2023-08-20T12:28:35;29.50;46.70
36774;DHT22;22730;51.980;5.934;2023-08-20T12:31:01;29.30;47.00
36774;DHT22;22730;51.980;5.934;2023-08-20T12:33:28;29.10;47.20
36774;DHT22;22730;51.980;5.934;2023-08-20T12:35:55;29.10;47.20
36774;DHT22;22730;51.980;5.934;2023-08-20T12:38:21;29.00;47.40
36774;DHT22;22730;51.980;5.934;2023-08-20T12:40:47;29.00;47.20
36774;DHT22;22730;51.980;5.934;2023-08-20T12:43:13;29.20;46.60
36774;DHT22;22730;51.980;5.934;2023-08-20T12:45:39;29.50;45.70
36774;DHT22;22730;51.980;5.934;2023-08-20T12:48:05;29.60;45.60
36774;DHT22;22730;51.980;5.934;2023-08-20T12:50:33;29.60;46.00
36774;DHT22;22730;51.980;5.934;2023-08-20T12:52:59;29.50;46.00
36774;DHT22;22730;51.980;5.934;2023-08-20T12:55:25;29.60;45.90
36774;DHT22;22730;51.980;5.934;2023-08-20T12:57:55;29.60;46.30
36774;DHT22;22730;51.980;5.934;2023-08-20T13:00:23;29.40;46.50
36774;DHT22;22730;51.980;5.934;2023-08-20T13:02:51;29.30;46.60
36774;DHT22;22730;51.980;5.934;2023-08-20T13:05:18;29.30;46.70
36774;DHT22;22730;51.980;5.934;2023-08-20T13:07:44;29.40;46.40
36774;DHT22;22730;51.980;5.934;2023-08-20T13:10:11;29.40;46.20
36774;DHT22;22730;51.980;5.934;2023-08-20T13:12:43;29.50;45.70
36774;DHT22;22730;51.980;5.934;2023-08-20T13:15:13;29.40;46.50
36774;DHT22;22730;51.980;5.934;2023-08-20T13:17:39;29.10;47.00
36774;DHT22;22730;51.980;5.934;2023-08-20T13:20:05;29.20;46.80
36774;DHT22;22730;51.980;5.934;2023-08-20T13:22:31;29.30;46.50
36774;DHT22;22730;51.980;5.934;2023-08-20T13:24:57;29.20;46.90
36774;DHT22;22730;51.980;5.934;2023-08-20T13:27:23;29.10;47.10
36774;DHT22;22730;51.980;5.934;2023-08-20T13:29:49;29.10;46.80
36774;DHT22;22730;51.980;5.934;2023-08-20T13:32:15;29.20;46.90
36774;DHT22;22730;51.980;5.934;2023-08-20T13:34:41;29.20;47.10
36774;DHT22;22730;51.980;5.934;2023-08-20T13:37:07;29.10;47.30
36774;DHT22;22730;51.980;5.934;2023-08-20T13:39:32;29.00;47.40
36774;DHT22;22730;51.980;5.934;2023-08-20T13:41:58;28.90;47.70
36774;DHT22;22730;51.980;5.934;2023-08-20T13:44:24;28.80;47.70
36774;DHT22;22730;51.980;5.934;2023-08-20T13:46:50;28.70;47.90
36774;DHT22;22730;51.980;5.934;2023-08-20T13:49:15;28.80;47.60
36774;DHT22;22730;51.980;5.934;2023-08-20T13:51:41;28.90;47.30
36774;DHT22;22730;51.980;5.934;2023-08-20T13:54:07;28.90;47.40
36774;DHT22;22730;51.980;5.934;2023-08-20T13:56:34;28.90;47.30
36774;DHT22;22730;51.980;5.934;2023-08-20T13:59:00;28.80;47.70
36774;DHT22;22730;51.980;5.934;2023-08-20T14:01:25;28.80;47.30
36774;DHT22;22730;51.980;5.934;2023-08-20T14:03:52;28.90;47.50
36774;DHT22;22730;51.980;5.934;2023-08-20T14:06:17;28.80;47.60
36774;DHT22;22730;51.980;5.934;2023-08-20T14:08:43;28.60;47.90
36774;DHT22;22730;51.980;5.934;2023-08-20T14:11:09;28.40;48.10
36774;DHT22;22730;51.980;5.934;2023-08-20T14:13:35;28.50;48.10
36774;DHT22;22730;51.980;5.934;2023-08-20T14:16:01;28.50;48.20
36774;DHT22;22730;51.980;5.934;2023-08-20T14:18:27;28.60;47.80
36774;DHT22;22730;51.980;5.934;2023-08-20T14:20:54;28.80;47.70
36774;DHT22;22730;51.980;5.934;2023-08-20T14:23:19;28.80;47.10
36774;DHT22;22730;51.980;5.934;2023-08-20T14:25:45;28.80;47.50
36774;DHT22;22730;51.980;5.934;2023-08-20T14:28:11;28.80;47.70
36774;DHT22;22730;51.980;5.934;2023-08-20T14:30:37;28.60;48.00
36774;DHT22;22730;51.980;5.934;2023-08-20T14:33:04;28.40;48.30
36774;DHT22;22730;51.980;5.934;2023-08-20T14:35:31;28.40;48.20
36774;DHT22;22730;51.980;5.934;2023-08-20T14:37:56;28.30;48.30
36774;DHT22;22730;51.980;5.934;2023-08-20T14:40:22;28.30;48.50
36774;DHT22;22730;51.980;5.934;2023-08-20T14:42:49;28.30;48.50
36774;DHT22;22730;51.980;5.934;2023-08-20T14:45:15;28.20;48.70
36774;DHT22;22730;51.980;5.934;2023-08-20T14:47:41;28.00;48.90
36774;DHT22;22730;51.980;5.934;2023-08-20T14:50:07;28.00;48.90
36774;DHT22;22730;51.980;5.934;2023-08-20T14:52:34;28.10;48.60
36774;DHT22;22730;51.980;5.934;2023-08-20T14:55:00;28.20;48.60
36774;DHT22;22730;51.980;5.934;2023-08-20T14:57:26;28.30;48.40
36774;DHT22;22730;51.980;5.934;2023-08-20T14:59:52;28.20;48.50
36774;DHT22;22730;51.980;5.934;2023-08-20T15:02:18;28.20;48.50
36774;DHT22;22730;51.980;5.934;2023-08-20T15:04:44;28.20;48.70
36774;DHT22;22730;51.980;5.934;2023-08-20T15:07:10;28.20;48.90
36774;DHT22;22730;51.980;5.934;2023-08-20T15:09:36;28.40;47.90
36774;DHT22;22730;51.980;5.934;2023-08-20T15:12:02;28.50;47.90
36774;DHT22;22730;51.980;5.934;2023-08-20T15:14:28;28.50;48.20
36774;DHT22;22730;51.980;5.934;2023-08-20T15:16:54;28.40;48.00
36774;DHT22;22730;51.980;5.934;2023-08-20T15:19:20;28.60;47.50
36774;DHT22;22730;51.980;5.934;2023-08-20T15:21:46;28.70;47.50
36774;DHT22;22730;51.980;5.934;2023-08-20T15:24:12;28.60;47.90
36774;DHT22;22730;51.980;5.934;2023-08-20T15:26:38;28.40;48.20
36774;DHT22;22730;51.980;5.934;2023-08-20T15:29:04;28.30;48.50
36774;DHT22;22730;51.980;5.934;2023-08-20T15:31:31;28.20;48.60
36774;DHT22;22730;51.980;5.934;2023-08-20T15:33:57;28.10;48.80
36774;DHT22;22730;51.980;5.934;2023-08-20T15:36:23;28.10;48.90
36774;DHT22;22730;51.980;5.934;2023-08-20T15:38:48;28.00;48.90
36774;DHT22;22730;51.980;5.934;2023-08-20T15:41:14;28.00;48.80
36774;DHT22;22730;51.980;5.934;2023-08-20T15:43:43;28.20;48.70
36774;DHT22;22730;51.980;5.934;2023-08-20T15:46:09;28.20;48.70
36774;DHT22;22730;51.980;5.934;2023-08-20T15:48:34;28.20;48.70
36774;DHT22;22730;51.980;5.934;2023-08-20T15:51:00;28.30;48.20
36774;DHT22;22730;51.980;5.934;2023-08-20T15:53:28;28.40;48.10
36774;DHT22;22730;51.980;5.934;2023-08-20T15:55:54;28.50;48.30
36774;DHT22;22730;51.980;5.934;2023-08-20T15:58:20;28.40;48.50
36774;DHT22;22730;51.980;5.934;2023-08-20T16:00:46;28.40;48.50
36774;DHT22;22730;51.980;5.934;2023-08-20T16:03:12;28.50;48.50
36774;DHT22;22730;51.980;5.934;2023-08-20T16:05:39;28.40;48.60
36774;DHT22;22730;51.980;5.934;2023-08-20T16:08:05;28.30;48.70
36774;DHT22;22730;51.980;5.934;2023-08-20T16:10:30;28.30;48.90
36774;DHT22;22730;51.980;5.934;2023-08-20T16:12:56;28.20;49.00
36774;DHT22;22730;51.980;5.934;2023-08-20T16:15:22;28.20;49.10
36774;DHT22;22730;51.980;5.934;2023-08-20T16:17:48;28.20;49.10
36774;DHT22;22730;51.980;5.934;2023-08-20T16:20:13;28.10;49.10
36774;DHT22;22730;51.980;5.934;2023-08-20T16:22:39;28.10;49.10
36774;DHT22;22730;51.980;5.934;2023-08-20T16:25:05;28.20;49.20
36774;DHT22;22730;51.980;5.934;2023-08-20T16:27:31;28.20;48.90
36774;DHT22;22730;51.980;5.934;2023-08-20T16:29:57;28.30;48.90
36774;DHT22;22730;51.980;5.934;2023-08-20T16:32:23;28.20;48.90
36774;DHT22;22730;51.980;5.934;2023-08-20T16:34:49;28.30;48.80
36774;DHT22;22730;51.980;5.934;2023-08-20T16:37:15;28.40;48.60
36774;DHT22;22730;51.980;5.934;2023-08-20T16:39:41;28.50;48.70
36774;DHT22;22730;51.980;5.934;2023-08-20T16:42:07;28.40;48.90
36774;DHT22;22730;51.980;5.934;2023-08-20T16:44:33;28.30;48.90
36774;DHT22;22730;51.980;5.934;2023-08-20T16:46:59;28.20;49.10
36774;DHT22;22730;51.980;5.934;2023-08-20T16:49:25;28.10;49.40
36774;DHT22;22730;51.980;5.934;2023-08-20T16:51:51;28.10;49.50
36774;DHT22;22730;51.980;5.934;2023-08-20T16:54:17;28.00;49.60
36774;DHT22;22730;51.980;5.934;2023-08-20T16:56:42;27.90;49.80
36774;DHT22;22730;51.980;5.934;2023-08-20T16:59:08;27.90;49.90
36774;DHT22;22730;51.980;5.934;2023-08-20T17:01:34;28.00;49.80
36774;DHT22;22730;51.980;5.934;2023-08-20T17:04:00;28.00;49.70
36774;DHT22;22730;51.980;5.934;2023-08-20T17:06:26;28.00;49.80
36774;DHT22;22730;51.980;5.934;2023-08-20T17:08:51;28.00;50.00
36774;DHT22;22730;51.980;5.934;2023-08-20T17:11:17;27.90;50.00
36774;DHT22;22730;51.980;5.934;2023-08-20T17:13:43;27.90;50.10
36774;DHT22;22730;51.980;5.934;2023-08-20T17:16:09;27.80;50.20
36774;DHT22;22730;51.980;5.934;2023-08-20T17:18:34;27.80;50.30
36774;DHT22;22730;51.980;5.934;2023-08-20T17:21:00;27.70;50.30
36774;DHT22;22730;51.980;5.934;2023-08-20T17:23:26;27.70;50.40
36774;DHT22;22730;51.980;5.934;2023-08-20T17:25:56;27.80;50.30
36774;DHT22;22730;51.980;5.934;2023-08-20T17:28:22;27.90;50.20
36774;DHT22;22730;51.980;5.934;2023-08-20T17:30:48;27.90;50.30
36774;DHT22;22730;51.980;5.934;2023-08-20T17:33:15;27.90;50.20
36774;DHT22;22730;51.980;5.934;2023-08-20T17:35:42;27.90;50.30
36774;DHT22;22730;51.980;5.934;2023-08-20T17:38:10;27.90;50.30
36774;DHT22;22730;51.980;5.934;2023-08-20T17:40:36;27.90;50.40
36774;DHT22;22730;51.980;5.934;2023-08-20T17:43:02;28.00;50.30
36774;DHT22;22730;51.980;5.934;2023-08-20T17:45:28;28.00;50.30